createdAt,value
2023-05-07T00:01:46.220Z,101757.81
2023-05-07T00:06:49.028Z,101745.00
2023-05-07T00:11:51.664Z,101754.28
2023-05-07T00:16:54.500Z,101756.72
2023-05-07T00:21:57.699Z,101759.59
2023-05-07T00:27:00.336Z,101752.97
2023-05-07T00:32:02.922Z,101752.56
2023-05-07T00:37:06.705Z,101753.75
2023-05-07T00:42:10.101Z,101770.19
2023-05-07T00:47:16.070Z,101763.81
2023-05-07T00:52:21.280Z,101750.03
2023-05-07T00:57:26.585Z,101769.66
2023-05-07T01:02:29.224Z,101757.72
2023-05-07T01:07:32.125Z,101745.13
2023-05-07T01:12:36.691Z,101750.34
2023-05-07T01:17:44.026Z,101761.03
2023-05-07T01:23:12.012Z,101765.94
2023-05-07T01:28:15.052Z,101773.50
2023-05-07T01:33:25.444Z,101773.88
2023-05-07T01:38:29.725Z,101780.13
2023-05-07T01:43:32.458Z,101784.97
2023-05-07T01:48:36.192Z,101778.34
2023-05-07T01:53:39.488Z,101785.41
2023-05-07T01:58:42.213Z,101788.84
2023-05-07T02:03:45.100Z,101804.63
2023-05-07T02:08:56.104Z,101818.97
2023-05-07T02:13:58.878Z,101804.75
2023-05-07T02:19:01.679Z,101805.56
2023-05-07T02:24:04.594Z,101809.06
2023-05-07T02:29:08.333Z,101818.22
2023-05-07T02:34:12.578Z,101819.47
2023-05-07T02:39:16.792Z,101838.38
2023-05-07T02:44:19.546Z,101842.13
2023-05-07T02:49:25.810Z,101862.34
2023-05-07T02:54:28.447Z,101867.47
2023-05-07T02:59:31.350Z,101879.28
2023-05-07T03:04:34.057Z,101865.72
2023-05-07T03:09:36.874Z,101870.34
2023-05-07T03:14:40.123Z,101889.09
2023-05-07T03:19:42.840Z,101897.78
2023-05-07T03:24:45.706Z,101903.41
2023-05-07T03:29:48.202Z,101887.75
2023-05-07T03:34:51.928Z,101884.06
2023-05-07T03:39:56.908Z,101881.66
2023-05-07T03:44:59.895Z,101890.28
2023-05-07T03:50:02.852Z,101902.25
2023-05-07T03:55:07.580Z,101912.41
2023-05-07T04:00:14.987Z,101912.47
2023-05-07T04:05:23.585Z,101927.53
2023-05-07T04:10:30.994Z,101948.41
2023-05-07T04:15:37.008Z,101935.72
2023-05-07T04:20:43.092Z,101939.91
2023-05-07T04:25:48.854Z,101946.13
2023-05-07T04:31:01.215Z,101964.22
2023-05-07T04:36:05.873Z,101952.91
2023-05-07T04:41:14.825Z,101963.63
2023-05-07T04:46:17.850Z,101948.22
2023-05-07T04:51:21.158Z,101961.09
2023-05-07T04:56:24.006Z,101948.97
2023-05-07T05:01:27.457Z,101947.00
2023-05-07T05:06:33.866Z,101964.50
2023-05-07T05:11:40.261Z,101944.06
2023-05-07T05:16:43.004Z,101948.91
2023-05-07T05:21:46.897Z,101951.59
2023-05-07T05:26:49.693Z,101961.44
2023-05-07T05:31:52.793Z,101957.84
2023-05-07T05:36:55.590Z,101955.91
2023-05-07T05:41:58.174Z,101952.78
2023-05-07T05:47:01.618Z,101942.53
2023-05-07T05:52:05.657Z,101935.75
2023-05-07T05:57:08.390Z,101929.38
2023-05-07T06:02:11.212Z,101924.88
2023-05-07T06:07:14.096Z,101932.97
2023-05-07T06:12:17.545Z,101923.66
2023-05-07T06:17:21.843Z,101945.34
2023-05-07T06:22:26.596Z,101956.06
2023-05-07T06:27:30.547Z,101959.81
2023-05-07T06:32:34.459Z,101976.56
2023-05-07T06:37:39.562Z,101974.41
2023-05-07T06:42:44.393Z,101974.47
2023-05-07T06:48:19.234Z,101977.78
2023-05-07T06:53:30.626Z,101978.13
2023-05-07T06:58:35.608Z,101978.84
2023-05-07T07:03:38.352Z,101971.38
2023-05-07T07:08:41.483Z,101963.16
2023-05-07T07:13:44.450Z,101959.94
2023-05-07T07:18:47.172Z,101955.75
2023-05-07T07:23:50.121Z,101954.41
2023-05-07T07:28:53.685Z,101929.63
2023-05-07T07:33:58.352Z,101934.19
2023-05-07T07:39:03.809Z,101938.84
2023-05-07T07:44:08.792Z,101933.63
2023-05-07T07:49:13.622Z,101941.47
2023-05-07T07:54:16.289Z,101935.81
2023-05-07T07:59:20.236Z,101927.69
2023-05-07T08:04:25.366Z,101935.91
2023-05-07T08:09:29.512Z,101932.91
2023-05-07T08:14:37.654Z,101939.56
2023-05-07T08:19:41.978Z,101957.88
2023-05-07T08:24:47.965Z,101969.44
2023-05-07T08:29:51.227Z,101969.03
2023-05-07T08:34:56.159Z,101962.09
2023-05-07T08:39:58.955Z,101962.19
2023-05-07T08:45:11.765Z,101947.19
2023-05-07T08:50:18.851Z,101964.78
2023-05-07T08:55:22.211Z,101955.84
2023-05-07T09:00:25.758Z,101951.09
2023-05-07T09:05:30.734Z,101967.69
2023-05-07T09:10:36.337Z,101966.44
2023-05-07T09:15:40.164Z,101965.47
2023-05-07T09:20:44.008Z,101960.50
2023-05-07T09:25:47.140Z,101934.59
2023-05-07T09:30:57.469Z,101939.38
2023-05-07T09:36:03.146Z,101952.63
2023-05-07T09:41:08.017Z,101946.41
2023-05-07T09:46:21.616Z,101942.59
2023-05-07T09:51:35.622Z,101931.59
2023-05-07T09:56:43.223Z,101929.03
2023-05-07T10:01:47.449Z,101936.66
2023-05-07T10:06:50.999Z,101926.56
2023-05-07T10:11:57.705Z,101940.81
2023-05-07T10:17:03.768Z,101942.00
2023-05-07T10:22:08.424Z,101935.66
2023-05-07T10:27:18.430Z,101928.25
2023-05-07T10:32:46.647Z,101933.88
2023-05-07T10:37:56.894Z,101944.13
2023-05-07T10:43:10.621Z,101940.25
2023-05-07T10:48:30.613Z,101938.63
2023-05-07T10:53:39.573Z,101954.97
2023-05-07T10:58:52.170Z,101950.41
2023-05-07T11:04:18.953Z,101952.88
2023-05-07T11:09:59.774Z,101952.31
2023-05-07T11:15:17.170Z,101945.53
2023-05-07T11:20:20.911Z,101937.97
2023-05-07T11:25:31.265Z,101927.88
2023-05-07T11:30:44.170Z,101933.56
2023-05-07T11:35:51.982Z,101922.34
2023-05-07T11:41:00.210Z,101926.66
2023-05-07T11:46:11.565Z,101928.41
2023-05-07T11:51:14.826Z,101921.72
2023-05-07T11:56:19.962Z,101921.28
2023-05-07T12:01:22.541Z,101912.13
2023-05-07T12:06:25.049Z,101907.97
2023-05-07T12:11:28.766Z,101907.78
2023-05-07T12:16:32.239Z,101907.16
2023-05-07T12:21:35.168Z,101910.50
2023-05-07T12:26:41.940Z,101911.66
2023-05-07T12:31:44.930Z,101921.72
2023-05-07T12:36:49.666Z,101899.44
2023-05-07T12:42:00.554Z,101920.22
2023-05-07T12:47:03.751Z,101927.53
2023-05-07T12:52:07.461Z,101924.50
2023-05-07T12:57:10.956Z,101933.94
2023-05-07T13:02:13.667Z,101937.91
2023-05-07T13:07:34.745Z,101960.16
2023-05-07T13:12:37.584Z,101943.03
2023-05-07T13:17:40.335Z,101947.78
2023-05-07T13:22:43.223Z,101949.88
2023-05-07T13:27:46.746Z,101958.38
2023-05-07T13:32:53.579Z,101958.78
2023-05-07T13:37:56.829Z,101952.41
2023-05-07T13:43:01.011Z,101958.78
2023-05-07T13:48:07.260Z,101950.09
2023-05-07T13:53:10.024Z,101946.09
2023-05-07T13:58:15.336Z,101944.00
2023-05-07T14:03:18.997Z,101943.31
2023-05-07T14:08:22.132Z,101953.34
2023-05-07T14:13:24.811Z,101935.31
2023-05-07T14:18:30.020Z,101937.91
2023-05-07T14:23:35.564Z,101956.63
2023-05-07T14:28:40.771Z,101951.63
2023-05-07T14:33:43.539Z,101957.78
2023-05-07T14:38:46.195Z,101963.53
2023-05-07T14:43:51.280Z,101962.03
2023-05-07T14:48:57.396Z,101958.19
2023-05-07T14:54:00.152Z,101955.00
2023-05-07T14:59:04.260Z,101969.22
2023-05-07T15:04:07.418Z,101964.06
2023-05-07T15:09:10.366Z,101983.53
2023-05-07T15:14:13.098Z,101981.66
2023-05-07T15:19:18.474Z,101981.69
2023-05-07T15:24:21.380Z,101982.53
2023-05-07T15:29:23.969Z,101978.00
2023-05-07T15:34:26.634Z,101976.50
2023-05-07T15:39:29.563Z,101963.72
2023-05-07T15:44:35.541Z,101954.91
2023-05-07T15:49:41.407Z,101966.63
2023-05-07T15:54:44.027Z,101967.41
2023-05-07T15:59:46.711Z,101991.47
2023-05-07T16:04:49.835Z,102002.53
2023-05-07T16:09:52.704Z,102015.84
2023-05-07T16:14:55.313Z,102029.41
2023-05-07T16:19:59.423Z,102048.75
2023-05-07T16:25:02.860Z,102060.47
2023-05-07T16:35:27.503Z,102035.34
2023-05-07T16:40:30.032Z,102019.50
2023-05-07T16:45:51.088Z,102015.63
2023-05-07T16:50:53.869Z,101998.97
2023-05-07T16:55:56.919Z,101973.72
2023-05-07T17:01:00.122Z,101961.91
2023-05-07T17:06:02.876Z,101964.69
2023-05-07T17:11:05.776Z,101970.84
2023-05-07T17:16:08.529Z,101988.13
2023-05-07T17:21:11.254Z,101995.13
2023-05-07T17:26:15.257Z,102001.97
2023-05-07T17:31:17.954Z,102009.63
2023-05-07T17:36:20.661Z,102011.56
2023-05-07T17:41:23.258Z,102025.41
2023-05-07T17:46:26.099Z,102024.66
2023-05-07T17:51:36.136Z,102029.28
2023-05-07T17:56:45.178Z,102025.22
2023-05-07T18:01:48.064Z,102014.34
2023-05-07T18:07:11.021Z,102007.16
2023-05-07T18:12:15.211Z,102000.44
2023-05-07T18:17:17.807Z,102011.03
2023-05-07T18:22:20.560Z,102000.06
2023-05-07T18:27:23.247Z,101984.50
2023-05-07T18:32:26.031Z,101969.28
2023-05-07T18:37:30.283Z,101966.69
2023-05-07T18:42:35.271Z,101954.72
2023-05-07T18:47:39.591Z,101946.78
2023-05-07T18:52:42.198Z,101951.94
2023-05-07T18:57:45.675Z,101947.81
2023-05-07T19:02:48.318Z,101953.41
2023-05-07T19:07:51.402Z,101953.03
2023-05-07T19:12:56.001Z,101923.22
2023-05-07T19:17:59.761Z,101956.34
2023-05-07T19:23:03.453Z,101948.13
2023-05-07T19:28:06.258Z,101951.66
2023-05-07T19:33:10.119Z,101956.81
2023-05-07T19:38:15.797Z,101956.81
2023-05-07T19:43:18.308Z,101950.41
2023-05-07T19:48:21.525Z,101950.03
2023-05-07T19:53:24.190Z,101956.59
2023-05-07T19:58:26.881Z,101949.41
2023-05-07T20:03:33.641Z,101953.47
2023-05-07T20:08:36.441Z,101954.50
2023-05-07T20:13:39.012Z,101952.47
2023-05-07T20:18:41.606Z,101946.84
2023-05-07T20:23:44.305Z,101962.88
2023-05-07T20:28:47.038Z,101954.34
2023-05-07T20:33:49.649Z,101957.78
2023-05-07T20:38:52.837Z,101966.28
2023-05-07T20:43:55.548Z,101966.44
2023-05-07T20:48:58.875Z,101965.25
2023-05-07T20:54:01.458Z,101948.94
2023-05-07T20:59:04.063Z,101963.31
2023-05-07T21:04:08.961Z,101963.50
2023-05-07T21:09:11.712Z,101966.81
2023-05-07T21:14:14.331Z,101966.56
2023-05-07T21:19:16.949Z,101968.19
2023-05-07T21:24:19.509Z,101982.38
2023-05-07T21:29:22.538Z,101973.09
2023-05-07T21:34:25.149Z,101982.94
2023-05-07T21:39:27.677Z,101972.19
2023-05-07T21:44:32.083Z,101961.28
2023-05-07T21:49:34.744Z,101975.47
2023-05-07T21:54:37.322Z,101965.19
2023-05-07T21:59:39.937Z,101966.84
2023-05-07T22:04:43.638Z,101965.19
2023-05-07T22:09:46.143Z,101953.13
2023-05-07T22:14:48.900Z,101948.81
2023-05-07T22:19:52.810Z,101949.56
2023-05-07T22:24:55.393Z,101962.19
2023-05-07T22:29:58.066Z,101962.19
2023-05-07T22:35:04.930Z,101967.63
2023-05-07T22:40:09.432Z,101974.97
2023-05-07T22:45:12.476Z,101984.47
2023-05-07T22:50:18.104Z,101974.06
2023-05-07T22:55:20.700Z,101972.22
2023-05-07T23:00:23.531Z,101978.84
2023-05-07T23:05:26.117Z,101982.16
2023-05-07T23:10:28.675Z,101979.88
2023-05-07T23:15:33.475Z,101981.53
2023-05-07T23:20:36.634Z,101952.22
2023-05-07T23:25:39.237Z,101966.13
2023-05-07T23:30:41.830Z,101977.63
2023-05-07T23:35:44.369Z,101960.31
2023-05-07T23:40:46.944Z,101960.88
2023-05-07T23:45:52.782Z,101972.56
2023-05-07T23:50:55.584Z,101968.75
2023-05-07T23:55:58.093Z,101970.16
